sensor_id;sensor_type;location;lat;lon;timestamp;temperature;humidity
30520;DHT22;17300;50.374;8.006;2024-02-04T00:02:11;14.80;56.20
30520;DHT22;17300;50.374;8.006;2024-02-04T00:04:39;14.80;56.20
30520;DHT22;17300;50.374;8.006;2024-02-04T00:07:06;14.80;56.20
30520;DHT22;17300;50.374;8.006;2024-02-04T00:09:33;14.80;56.20
30520;DHT22;17300;50.374;8.006;2024-02-04T00:12:01;14.80;56.20
30520;DHT22;17300;50.374;8.006;2024-02-04T00:14:29;14.80;56.30
30520;DHT22;17300;50.374;8.006;2024-02-04T00:16:55;14.80;56.30
30520;DHT22;17300;50.374;8.006;2024-02-04T00:19:22;14.80;56.20
30520;DHT22;17300;50.374;8.006;2024-02-04T00:21:49;14.80;56.20
30520;DHT22;17300;50.374;8.006;2024-02-04T00:24:15;14.80;56.20
30520;DHT22;17300;50.374;8.006;2024-02-04T00:26:44;14.80;56.30
30520;DHT22;17300;50.374;8.006;2024-02-04T00:29:12;14.80;56.20
30520;DHT22;17300;50.374;8.006;2024-02-04T00:31:39;14.80;56.20
30520;DHT22;17300;50.374;8.006;2024-02-04T00:34:05;14.80;56.20
30520;DHT22;17300;50.374;8.006;2024-02-04T00:36:32;14.80;56.10
30520;DHT22;17300;50.374;8.006;2024-02-04T00:38:59;14.80;56.20
30520;DHT22;17300;50.374;8.006;2024-02-04T00:41:25;14.80;56.20
30520;DHT22;17300;50.374;8.006;2024-02-04T00:43:52;14.70;56.10
30520;DHT22;17300;50.374;8.006;2024-02-04T00:46:20;14.70;56.10
30520;DHT22;17300;50.374;8.006;2024-02-04T00:48:47;14.70;56.10
30520;DHT22;17300;50.374;8.006;2024-02-04T00:51:13;14.70;56.10
30520;DHT22;17300;50.374;8.006;2024-02-04T00:53:42;14.70;56.10
30520;DHT22;17300;50.374;8.006;2024-02-04T00:56:09;14.80;56.20
30520;DHT22;17300;50.374;8.006;2024-02-04T00:58:36;14.70;56.10
30520;DHT22;17300;50.374;8.006;2024-02-04T01:01:04;14.70;56.10
30520;DHT22;17300;50.374;8.006;2024-02-04T01:03:32;14.80;56.20
30520;DHT22;17300;50.374;8.006;2024-02-04T01:05:59;14.70;56.10
30520;DHT22;17300;50.374;8.006;2024-02-04T01:08:25;14.70;56.10
30520;DHT22;17300;50.374;8.006;2024-02-04T01:10:52;14.70;56.10
30520;DHT22;17300;50.374;8.006;2024-02-04T01:13:19;14.70;56.10
30520;DHT22;17300;50.374;8.006;2024-02-04T01:15:45;14.80;56.20
30520;DHT22;17300;50.374;8.006;2024-02-04T01:18:12;14.80;56.30
30520;DHT22;17300;50.374;8.006;2024-02-04T01:20:40;14.80;56.30
30520;DHT22;17300;50.374;8.006;2024-02-04T01:23:07;14.80;56.30
30520;DHT22;17300;50.374;8.006;2024-02-04T01:25:34;14.80;56.30
30520;DHT22;17300;50.374;8.006;2024-02-04T01:28:00;14.80;56.30
30520;DHT22;17300;50.374;8.006;2024-02-04T01:30:27;14.80;56.30
30520;DHT22;17300;50.374;8.006;2024-02-04T01:32:56;14.80;56.30
30520;DHT22;17300;50.374;8.006;2024-02-04T01:35:22;14.80;56.30
30520;DHT22;17300;50.374;8.006;2024-02-04T01:37:50;14.80;56.30
30520;DHT22;17300;50.374;8.006;2024-02-04T01:40:17;14.80;56.30
30520;DHT22;17300;50.374;8.006;2024-02-04T01:42:44;14.80;56.40
30520;DHT22;17300;50.374;8.006;2024-02-04T01:45:10;14.80;56.40
30520;DHT22;17300;50.374;8.006;2024-02-04T01:47:37;14.80;56.40
30520;DHT22;17300;50.374;8.006;2024-02-04T01:50:04;14.80;56.40
30520;DHT22;17300;50.374;8.006;2024-02-04T01:52:31;14.80;56.40
30520;DHT22;17300;50.374;8.006;2024-02-04T01:55:00;14.80;57.00
30520;DHT22;17300;50.374;8.006;2024-02-04T01:57:29;14.80;56.40
30520;DHT22;17300;50.374;8.006;2024-02-04T01:59:56;14.80;56.30
30520;DHT22;17300;50.374;8.006;2024-02-04T02:02:23;14.80;56.30
30520;DHT22;17300;50.374;8.006;2024-02-04T02:04:51;14.80;56.40
30520;DHT22;17300;50.374;8.006;2024-02-04T02:07:18;14.80;56.30
30520;DHT22;17300;50.374;8.006;2024-02-04T02:09:45;14.80;56.40
30520;DHT22;17300;50.374;8.006;2024-02-04T02:12:16;14.80;56.40
30520;DHT22;17300;50.374;8.006;2024-02-04T02:14:48;14.80;56.60
30520;DHT22;17300;50.374;8.006;2024-02-04T02:17:20;14.70;56.60
30520;DHT22;17300;50.374;8.006;2024-02-04T02:19:54;14.70;56.50
30520;DHT22;17300;50.374;8.006;2024-02-04T02:22:28;14.70;56.60
30520;DHT22;17300;50.374;8.006;2024-02-04T02:24:57;14.70;56.50
30520;DHT22;17300;50.374;8.006;2024-02-04T02:27:24;14.70;56.50
30520;DHT22;17300;50.374;8.006;2024-02-04T02:29:51;14.70;56.60
30520;DHT22;17300;50.374;8.006;2024-02-04T02:32:18;14.70;56.50
30520;DHT22;17300;50.374;8.006;2024-02-04T02:34:45;14.70;56.60
30520;DHT22;17300;50.374;8.006;2024-02-04T02:37:20;14.70;56.70
30520;DHT22;17300;50.374;8.006;2024-02-04T02:39:52;14.70;56.80
30520;DHT22;17300;50.374;8.006;2024-02-04T02:42:24;14.60;56.70
30520;DHT22;17300;50.374;8.006;2024-02-04T02:44:53;14.60;56.60
30520;DHT22;17300;50.374;8.006;2024-02-04T02:47:21;14.60;56.70
30520;DHT22;17300;50.374;8.006;2024-02-04T02:49:51;14.70;56.80
30520;DHT22;17300;50.374;8.006;2024-02-04T02:52:17;14.60;56.80
30520;DHT22;17300;50.374;8.006;2024-02-04T02:54:44;14.60;56.80
30520;DHT22;17300;50.374;8.006;2024-02-04T02:57:11;14.60;56.80
30520;DHT22;17300;50.374;8.006;2024-02-04T02:59:39;14.60;56.80
30520;DHT22;17300;50.374;8.006;2024-02-04T03:02:05;14.60;56.90
30520;DHT22;17300;50.374;8.006;2024-02-04T03:04:32;14.60;57.00
30520;DHT22;17300;50.374;8.006;2024-02-04T03:06:59;14.60;57.00
30520;DHT22;17300;50.374;8.006;2024-02-04T03:09:25;14.60;57.00
30520;DHT22;17300;50.374;8.006;2024-02-04T03:11:52;14.60;57.00
30520;DHT22;17300;50.374;8.006;2024-02-04T03:14:20;14.60;57.10
30520;DHT22;17300;50.374;8.006;2024-02-04T03:16:48;14.50;57.00
30520;DHT22;17300;50.374;8.006;2024-02-04T03:19:14;14.60;57.10
30520;DHT22;17300;50.374;8.006;2024-02-04T03:21:41;14.60;57.20
30520;DHT22;17300;50.374;8.006;2024-02-04T03:24:08;14.60;57.20
30520;DHT22;17300;50.374;8.006;2024-02-04T03:26:34;14.50;57.10
30520;DHT22;17300;50.374;8.006;2024-02-04T03:29:01;14.60;57.30
30520;DHT22;17300;50.374;8.006;2024-02-04T03:31:30;14.60;57.30
30520;DHT22;17300;50.374;8.006;2024-02-04T03:33:58;14.50;57.20
30520;DHT22;17300;50.374;8.006;2024-02-04T03:36:25;14.60;57.30
30520;DHT22;17300;50.374;8.006;2024-02-04T03:38:52;14.60;57.30
30520;DHT22;17300;50.374;8.006;2024-02-04T03:41:18;14.50;57.20
30520;DHT22;17300;50.374;8.006;2024-02-04T03:43:45;14.60;57.30
30520;DHT22;17300;50.374;8.006;2024-02-04T03:46:13;14.60;57.30
30520;DHT22;17300;50.374;8.006;2024-02-04T03:48:40;14.60;57.30
30520;DHT22;17300;50.374;8.006;2024-02-04T03:51:08;14.60;57.30
30520;DHT22;17300;50.374;8.006;2024-02-04T03:53:41;14.60;57.40
30520;DHT22;17300;50.374;8.006;2024-02-04T03:56:07;14.60;57.30
30520;DHT22;17300;50.374;8.006;2024-02-04T03:58:34;14.60;57.30
30520;DHT22;17300;50.374;8.006;2024-02-04T04:01:01;14.60;57.30
30520;DHT22;17300;50.374;8.006;2024-02-04T04:03:27;14.60;57.30
30520;DHT22;17300;50.374;8.006;2024-02-04T04:05:54;14.60;57.30
30520;DHT22;17300;50.374;8.006;2024-02-04T04:08:22;14.60;57.30
30520;DHT22;17300;50.374;8.006;2024-02-04T04:10:48;14.60;57.40
30520;DHT22;17300;50.374;8.006;2024-02-04T04:13:16;14.60;57.30
30520;DHT22;17300;50.374;8.006;2024-02-04T04:15:43;14.60;57.40
30520;DHT22;17300;50.374;8.006;2024-02-04T04:18:09;14.60;57.30
30520;DHT22;17300;50.374;8.006;2024-02-04T04:20:37;14.60;57.40
30520;DHT22;17300;50.374;8.006;2024-02-04T04:23:03;14.60;57.30
30520;DHT22;17300;50.374;8.006;2024-02-04T04:25:31;14.60;57.30
30520;DHT22;17300;50.374;8.006;2024-02-04T04:27:58;14.60;57.30
30520;DHT22;17300;50.374;8.006;2024-02-04T04:30:25;14.60;57.30
30520;DHT22;17300;50.374;8.006;2024-02-04T04:32:51;14.70;57.30
30520;DHT22;17300;50.374;8.006;2024-02-04T04:35:18;14.70;57.30
30520;DHT22;17300;50.374;8.006;2024-02-04T04:37:45;14.70;57.30
30520;DHT22;17300;50.374;8.006;2024-02-04T04:40:12;14.60;57.30
30520;DHT22;17300;50.374;8.006;2024-02-04T04:42:40;14.60;57.20
30520;DHT22;17300;50.374;8.006;2024-02-04T04:45:07;14.60;57.20
30520;DHT22;17300;50.374;8.006;2024-02-04T04:47:34;14.60;57.20
30520;DHT22;17300;50.374;8.006;2024-02-04T04:50:01;14.60;57.20
30520;DHT22;17300;50.374;8.006;2024-02-04T04:52:28;14.60;57.10
30520;DHT22;17300;50.374;8.006;2024-02-04T04:54:55;14.70;57.30
30520;DHT22;17300;50.374;8.006;2024-02-04T04:57:21;14.60;57.20
30520;DHT22;17300;50.374;8.006;2024-02-04T04:59:49;14.60;57.20
30520;DHT22;17300;50.374;8.006;2024-02-04T05:02:16;14.70;57.30
30520;DHT22;17300;50.374;8.006;2024-02-04T05:04:43;14.70;57.30
30520;DHT22;17300;50.374;8.006;2024-02-04T05:07:10;14.60;57.10
30520;DHT22;17300;50.374;8.006;2024-02-04T05:09:37;14.70;57.20
30520;DHT22;17300;50.374;8.006;2024-02-04T05:12:04;14.70;57.20
30520;DHT22;17300;50.374;8.006;2024-02-04T05:14:30;14.70;57.20
30520;DHT22;17300;50.374;8.006;2024-02-04T05:16:58;14.70;57.20
30520;DHT22;17300;50.374;8.006;2024-02-04T05:19:25;14.70;57.20
30520;DHT22;17300;50.374;8.006;2024-02-04T05:21:52;14.70;57.10
30520;DHT22;17300;50.374;8.006;2024-02-04T05:24:18;14.70;57.20
30520;DHT22;17300;50.374;8.006;2024-02-04T05:26:45;14.70;57.10
30520;DHT22;17300;50.374;8.006;2024-02-04T05:29:12;14.70;57.20
30520;DHT22;17300;50.374;8.006;2024-02-04T05:31:40;14.70;57.10
30520;DHT22;17300;50.374;8.006;2024-02-04T05:34:09;14.70;57.20
30520;DHT22;17300;50.374;8.006;2024-02-04T05:36:36;14.70;57.20
30520;DHT22;17300;50.374;8.006;2024-02-04T05:39:10;14.70;57.10
30520;DHT22;17300;50.374;8.006;2024-02-04T05:41:37;14.70;57.30
30520;DHT22;17300;50.374;8.006;2024-02-04T05:44:04;14.70;57.10
30520;DHT22;17300;50.374;8.006;2024-02-04T05:46:31;14.70;57.10
30520;DHT22;17300;50.374;8.006;2024-02-04T05:48:58;14.70;57.10
30520;DHT22;17300;50.374;8.006;2024-02-04T05:51:27;14.70;57.10
30520;DHT22;17300;50.374;8.006;2024-02-04T05:53:53;14.70;57.10
30520;DHT22;17300;50.374;8.006;2024-02-04T05:56:21;14.70;57.10
30520;DHT22;17300;50.374;8.006;2024-02-04T05:58:48;14.70;57.10
30520;DHT22;17300;50.374;8.006;2024-02-04T06:01:15;14.70;57.10
30520;DHT22;17300;50.374;8.006;2024-02-04T06:03:42;14.60;57.10
30520;DHT22;17300;50.374;8.006;2024-02-04T06:06:13;14.70;57.10
30520;DHT22;17300;50.374;8.006;2024-02-04T06:08:41;14.60;57.10
30520;DHT22;17300;50.374;8.006;2024-02-04T06:11:10;14.60;57.00
30520;DHT22;17300;50.374;8.006;2024-02-04T06:13:38;14.70;57.10
30520;DHT22;17300;50.374;8.006;2024-02-04T06:16:05;14.60;57.00
30520;DHT22;17300;50.374;8.006;2024-02-04T06:18:32;14.60;57.10
30520;DHT22;17300;50.374;8.006;2024-02-04T06:20:58;14.60;57.10
30520;DHT22;17300;50.374;8.006;2024-02-04T06:23:25;14.60;57.10
30520;DHT22;17300;50.374;8.006;2024-02-04T06:25:53;14.60;57.10
30520;DHT22;17300;50.374;8.006;2024-02-04T06:28:20;14.60;57.20
30520;DHT22;17300;50.374;8.006;2024-02-04T06:30:46;14.60;57.10
30520;DHT22;17300;50.374;8.006;2024-02-04T06:33:13;14.60;57.20
30520;DHT22;17300;50.374;8.006;2024-02-04T06:35:40;14.60;57.30
30520;DHT22;17300;50.374;8.006;2024-02-04T06:38:06;14.70;57.30
30520;DHT22;17300;50.374;8.006;2024-02-04T06:40:33;14.60;57.20
30520;DHT22;17300;50.374;8.006;2024-02-04T06:43:01;14.70;57.30
30520;DHT22;17300;50.374;8.006;2024-02-04T06:45:28;14.60;57.20
30520;DHT22;17300;50.374;8.006;2024-02-04T06:47:54;14.60;57.10
30520;DHT22;17300;50.374;8.006;2024-02-04T06:50:21;14.60;57.20
30520;DHT22;17300;50.374;8.006;2024-02-04T06:52:47;14.70;57.80
30520;DHT22;17300;50.374;8.006;2024-02-04T06:55:14;14.60;57.10
30520;DHT22;17300;50.374;8.006;2024-02-04T06:57:41;14.60;57.10
30520;DHT22;17300;50.374;8.006;2024-02-04T07:00:10;14.60;57.10
30520;DHT22;17300;50.374;8.006;2024-02-04T07:02:37;14.60;57.20
30520;DHT22;17300;50.374;8.006;2024-02-04T07:05:05;14.60;57.20
30520;DHT22;17300;50.374;8.006;2024-02-04T07:07:31;14.60;57.30
30520;DHT22;17300;50.374;8.006;2024-02-04T07:09:59;14.60;57.30
30520;DHT22;17300;50.374;8.006;2024-02-04T07:12:26;14.60;57.40
30520;DHT22;17300;50.374;8.006;2024-02-04T07:14:52;14.60;57.30
30520;DHT22;17300;50.374;8.006;2024-02-04T07:17:20;14.60;57.40
30520;DHT22;17300;50.374;8.006;2024-02-04T07:19:47;14.60;57.40
30520;DHT22;17300;50.374;8.006;2024-02-04T07:22:14;14.60;57.40
30520;DHT22;17300;50.374;8.006;2024-02-04T07:24:41;14.60;57.40
30520;DHT22;17300;50.374;8.006;2024-02-04T07:27:07;14.60;57.40
30520;DHT22;17300;50.374;8.006;2024-02-04T07:29:34;14.70;57.60
30520;DHT22;17300;50.374;8.006;2024-02-04T07:32:01;14.60;57.50
30520;DHT22;17300;50.374;8.006;2024-02-04T07:34:29;14.60;57.60
30520;DHT22;17300;50.374;8.006;2024-02-04T07:36:55;14.60;57.60
30520;DHT22;17300;50.374;8.006;2024-02-04T07:39:22;14.60;57.60
30520;DHT22;17300;50.374;8.006;2024-02-04T07:41:49;14.60;57.60
30520;DHT22;17300;50.374;8.006;2024-02-04T07:44:15;14.60;57.60
30520;DHT22;17300;50.374;8.006;2024-02-04T07:46:42;14.60;57.60
30520;DHT22;17300;50.374;8.006;2024-02-04T07:49:09;14.60;57.60
30520;DHT22;17300;50.374;8.006;2024-02-04T07:51:37;14.60;57.60
30520;DHT22;17300;50.374;8.006;2024-02-04T07:54:03;14.60;57.70
30520;DHT22;17300;50.374;8.006;2024-02-04T07:56:30;14.60;57.70
30520;DHT22;17300;50.374;8.006;2024-02-04T07:58:57;14.60;57.70
30520;DHT22;17300;50.374;8.006;2024-02-04T09:52:48;15.30;58.10
30520;DHT22;17300;50.374;8.006;2024-02-04T09:55:30;15.30;58.20
30520;DHT22;17300;50.374;8.006;2024-02-04T09:58:00;15.30;58.10
30520;DHT22;17300;50.374;8.006;2024-02-04T12:57:41;15.60;58.90
30520;DHT22;17300;50.374;8.006;2024-02-04T18:01:27;15.60;58.40
30520;DHT22;17300;50.374;8.006;2024-02-04T18:04:04;15.60;58.30
30520;DHT22;17300;50.374;8.006;2024-02-04T18:13:15;15.60;58.10
30520;DHT22;17300;50.374;8.006;2024-02-04T18:15:46;15.60;58.10
30520;DHT22;17300;50.374;8.006;2024-02-04T18:18:29;15.70;58.10
30520;DHT22;17300;50.374;8.006;2024-02-04T18:21:02;15.60;58.00
30520;DHT22;17300;50.374;8.006;2024-02-04T18:23:29;15.60;57.90
30520;DHT22;17300;50.374;8.006;2024-02-04T18:25:56;15.60;57.90
30520;DHT22;17300;50.374;8.006;2024-02-04T19:06:33;15.70;57.30
30520;DHT22;17300;50.374;8.006;2024-02-04T19:09:12;15.70;57.30
